sensor_id;sensor_type;location;lat;lon;timestamp;pressure;altitude;pressure_sealevel;temperature;humidity
63819;BME280;49970;54.976;73.248;2023-07-31T00:02:04;99775.66;;;19.51;82.91
63819;BME280;49970;54.976;73.248;2023-07-31T00:04:30;99776.22;;;19.47;83.64
63819;BME280;49970;54.976;73.248;2023-07-31T00:06:56;99779.38;;;19.50;84.48
63819;BME280;49970;54.976;73.248;2023-07-31T00:09:23;99769.19;;;19.46;84.60
63819;BME280;49970;54.976;73.248;2023-07-31T00:11:49;99773.00;;;19.51;84.29
63819;BME280;49970;54.976;73.248;2023-07-31T00:14:15;99773.81;;;19.52;83.67
63819;BME280;49970;54.976;73.248;2023-07-31T00:16:41;99768.34;;;19.45;84.12
63819;BME280;49970;54.976;73.248;2023-07-31T00:19:07;99774.19;;;19.49;83.92
63819;BME280;49970;54.976;73.248;2023-07-31T00:21:33;99772.50;;;19.48;84.02
63819;BME280;49970;54.976;73.248;2023-07-31T00:24:00;99774.84;;;19.51;83.75
63819;BME280;49970;54.976;73.248;2023-07-31T00:26:26;99778.34;;;19.51;84.60
63819;BME280;49970;54.976;73.248;2023-07-31T00:28:52;99780.22;;;19.51;84.00
63819;BME280;49970;54.976;73.248;2023-07-31T00:31:18;99772.13;;;19.36;84.92
63819;BME280;49970;54.976;73.248;2023-07-31T00:33:44;99778.25;;;19.45;85.09
63819;BME280;49970;54.976;73.248;2023-07-31T00:36:10;99778.25;;;19.45;84.60
63819;BME280;49970;54.976;73.248;2023-07-31T00:38:37;99778.41;;;19.43;85.10
63819;BME280;49970;54.976;73.248;2023-07-31T00:41:03;99780.41;;;19.49;85.49
63819;BME280;49970;54.976;73.248;2023-07-31T00:43:29;99777.38;;;19.52;85.45
63819;BME280;49970;54.976;73.248;2023-07-31T00:45:55;99779.50;;;19.57;85.33
63819;BME280;49970;54.976;73.248;2023-07-31T00:48:21;99768.75;;;19.57;85.38
63819;BME280;49970;54.976;73.248;2023-07-31T00:50:48;99771.41;;;19.65;85.24
63819;BME280;49970;54.976;73.248;2023-07-31T00:53:14;99772.88;;;19.68;85.10
63819;BME280;49970;54.976;73.248;2023-07-31T00:55:41;99780.78;;;19.69;85.30
63819;BME280;49970;54.976;73.248;2023-07-31T00:58:07;99779.56;;;19.72;85.46
63819;BME280;49970;54.976;73.248;2023-07-31T01:00:33;99779.56;;;19.72;85.42
63819;BME280;49970;54.976;73.248;2023-07-31T01:03:01;99787.47;;;19.73;85.01
63819;BME280;49970;54.976;73.248;2023-07-31T01:05:59;99782.09;;;19.73;85.61
63819;BME280;49970;54.976;73.248;2023-07-31T01:08:36;99775.84;;;19.73;85.44
63819;BME280;49970;54.976;73.248;2023-07-31T01:11:37;99785.78;;;19.72;85.63
63819;BME280;49970;54.976;73.248;2023-07-31T01:14:04;99784.47;;;19.68;85.65
63819;BME280;49970;54.976;73.248;2023-07-31T01:16:31;99774.47;;;19.62;85.83
63819;BME280;49970;54.976;73.248;2023-07-31T01:19:18;99771.44;;;19.57;85.77
63819;BME280;49970;54.976;73.248;2023-07-31T01:26:14;99783.84;;;19.81;86.06
63819;BME280;49970;54.976;73.248;2023-07-31T01:31:26;99771.09;;;19.98;86.35
63819;BME280;49970;54.976;73.248;2023-07-31T01:33:58;99761.84;;;20.00;85.94
63819;BME280;49970;54.976;73.248;2023-07-31T01:36:25;99762.59;;;20.09;86.28
63819;BME280;49970;54.976;73.248;2023-07-31T01:38:52;99771.88;;;20.21;85.87
63819;BME280;49970;54.976;73.248;2023-07-31T01:41:18;99770.03;;;20.22;85.92
63819;BME280;49970;54.976;73.248;2023-07-31T01:43:46;99770.41;;;20.33;86.32
63819;BME280;49970;54.976;73.248;2023-07-31T01:46:12;99767.34;;;20.36;86.17
63819;BME280;49970;54.976;73.248;2023-07-31T01:48:40;99777.09;;;20.52;85.82
63819;BME280;49970;54.976;73.248;2023-07-31T01:51:06;99773.19;;;20.70;85.96
63819;BME280;49970;54.976;73.248;2023-07-31T01:53:32;99772.59;;;20.89;85.23
63819;BME280;49970;54.976;73.248;2023-07-31T01:55:59;99767.56;;;21.01;84.91
63819;BME280;49970;54.976;73.248;2023-07-31T01:58:25;99773.16;;;21.21;84.60
63819;BME280;49970;54.976;73.248;2023-07-31T02:00:51;99771.34;;;21.43;84.00
63819;BME280;49970;54.976;73.248;2023-07-31T02:03:18;99770.28;;;21.65;84.19
63819;BME280;49970;54.976;73.248;2023-07-31T02:05:48;99772.25;;;21.99;82.77
63819;BME280;49970;54.976;73.248;2023-07-31T02:08:15;99753.34;;;22.27;81.49
63819;BME280;49970;54.976;73.248;2023-07-31T02:10:42;99779.13;;;22.71;80.67
63819;BME280;49970;54.976;73.248;2023-07-31T02:13:10;99780.75;;;23.00;79.51
63819;BME280;49970;54.976;73.248;2023-07-31T02:15:36;99772.28;;;23.36;78.89
63819;BME280;49970;54.976;73.248;2023-07-31T02:18:02;99763.19;;;23.64;77.84
63819;BME280;49970;54.976;73.248;2023-07-31T02:20:29;99777.75;;;24.03;76.44
63819;BME280;49970;54.976;73.248;2023-07-31T02:22:55;99767.75;;;24.23;75.73
63819;BME280;49970;54.976;73.248;2023-07-31T02:25:23;99775.22;;;24.41;74.78
63819;BME280;49970;54.976;73.248;2023-07-31T02:27:50;99773.97;;;24.50;74.81
63819;BME280;49970;54.976;73.248;2023-07-31T02:30:16;99775.63;;;24.58;74.20
63819;BME280;49970;54.976;73.248;2023-07-31T02:32:43;99768.09;;;24.60;73.91
63819;BME280;49970;54.976;73.248;2023-07-31T02:35:10;99773.16;;;24.50;74.40
63819;BME280;49970;54.976;73.248;2023-07-31T02:37:42;99769.81;;;24.34;74.73
63819;BME280;49970;54.976;73.248;2023-07-31T02:40:08;99770.91;;;24.14;75.38
63819;BME280;49970;54.976;73.248;2023-07-31T02:42:35;99763.22;;;23.97;75.91
63819;BME280;49970;54.976;73.248;2023-07-31T02:45:02;99760.53;;;23.84;76.63
63819;BME280;49970;54.976;73.248;2023-07-31T02:47:28;99770.69;;;23.62;77.07
63819;BME280;49970;54.976;73.248;2023-07-31T02:49:54;99762.72;;;23.41;77.53
63819;BME280;49970;54.976;73.248;2023-07-31T02:52:21;99762.72;;;23.41;78.13
63819;BME280;49970;54.976;73.248;2023-07-31T02:54:48;99766.50;;;23.46;78.18
63819;BME280;49970;54.976;73.248;2023-07-31T02:57:14;99775.66;;;23.58;78.10
63819;BME280;49970;54.976;73.248;2023-07-31T02:59:41;99772.97;;;23.58;77.57
63819;BME280;49970;54.976;73.248;2023-07-31T03:02:07;99768.78;;;23.56;78.22
63819;BME280;49970;54.976;73.248;2023-07-31T03:04:34;99772.34;;;23.63;78.52
63819;BME280;49970;54.976;73.248;2023-07-31T03:07:00;99773.63;;;23.67;78.87
63819;BME280;49970;54.976;73.248;2023-07-31T03:09:26;99761.31;;;23.65;78.40
63819;BME280;49970;54.976;73.248;2023-07-31T03:11:52;99768.16;;;23.60;77.93
63819;BME280;49970;54.976;73.248;2023-07-31T03:14:20;99778.38;;;23.58;78.41
63819;BME280;49970;54.976;73.248;2023-07-31T03:16:46;99772.34;;;23.63;78.23
63819;BME280;49970;54.976;73.248;2023-07-31T03:19:12;99770.28;;;23.65;78.71
63819;BME280;49970;54.976;73.248;2023-07-31T03:21:38;99769.00;;;23.61;78.14
63819;BME280;49970;54.976;73.248;2023-07-31T03:24:04;99773.16;;;23.64;77.87
63819;BME280;49970;54.976;73.248;2023-07-31T03:26:32;99762.81;;;23.67;77.78
63819;BME280;49970;54.976;73.248;2023-07-31T03:28:58;99770.50;;;23.83;76.99
63819;BME280;49970;54.976;73.248;2023-07-31T03:31:26;99765.28;;;23.82;76.75
63819;BME280;49970;54.976;73.248;2023-07-31T03:33:52;99768.81;;;23.82;76.70
63819;BME280;49970;54.976;73.248;2023-07-31T03:36:18;99760.50;;;23.91;76.27
63819;BME280;49970;54.976;73.248;2023-07-31T03:38:46;99770.69;;;23.95;76.85
63819;BME280;49970;54.976;73.248;2023-07-31T03:41:12;99776.94;;;24.02;75.52
63819;BME280;49970;54.976;73.248;2023-07-31T03:43:38;99771.53;;;24.09;75.99
63819;BME280;49970;54.976;73.248;2023-07-31T03:46:04;99767.97;;;24.15;76.58
63819;BME280;49970;54.976;73.248;2023-07-31T03:48:31;99773.78;;;24.19;76.20
63819;BME280;49970;54.976;73.248;2023-07-31T03:50:57;99772.34;;;24.16;76.21
63819;BME280;49970;54.976;73.248;2023-07-31T03:53:23;99767.97;;;24.22;76.68
63819;BME280;49970;54.976;73.248;2023-07-31T03:55:50;99778.56;;;24.30;76.12
63819;BME280;49970;54.976;73.248;2023-07-31T03:58:16;99772.28;;;24.36;75.84
63819;BME280;49970;54.976;73.248;2023-07-31T04:00:42;99770.84;;;24.40;75.76
63819;BME280;49970;54.976;73.248;2023-07-31T04:03:08;99768.97;;;24.47;75.50
63819;BME280;49970;54.976;73.248;2023-07-31T04:05:38;99767.28;;;24.53;75.12
63819;BME280;49970;54.976;73.248;2023-07-31T04:08:05;99769.19;;;24.46;74.95
63819;BME280;49970;54.976;73.248;2023-07-31T04:10:34;99770.44;;;24.50;75.25
63819;BME280;49970;54.976;73.248;2023-07-31T04:13:00;99767.28;;;24.53;74.79
63819;BME280;49970;54.976;73.248;2023-07-31T04:15:26;99765.16;;;24.62;74.93
63819;BME280;49970;54.976;73.248;2023-07-31T04:17:53;99763.09;;;24.64;74.43
63819;BME280;49970;54.976;73.248;2023-07-31T04:20:19;99762.44;;;24.68;74.96
63819;BME280;49970;54.976;73.248;2023-07-31T04:22:45;99759.28;;;24.78;74.19
63819;BME280;49970;54.976;73.248;2023-07-31T04:25:11;99762.16;;;24.83;74.39
63819;BME280;49970;54.976;73.248;2023-07-31T04:27:37;99763.78;;;24.91;74.21
63819;BME280;49970;54.976;73.248;2023-07-31T04:30:04;99763.53;;;24.99;74.38
63819;BME280;49970;54.976;73.248;2023-07-31T04:32:31;99753.13;;;25.09;73.78
63819;BME280;49970;54.976;73.248;2023-07-31T04:34:57;99758.88;;;25.19;74.35
63819;BME280;49970;54.976;73.248;2023-07-31T04:37:23;99763.38;;;25.32;73.45
63819;BME280;49970;54.976;73.248;2023-07-31T04:39:49;99754.50;;;25.25;73.24
63819;BME280;49970;54.976;73.248;2023-07-31T04:42:15;99759.47;;;25.28;73.63
63819;BME280;49970;54.976;73.248;2023-07-31T04:44:41;99767.38;;;25.29;72.57
63819;BME280;49970;54.976;73.248;2023-07-31T04:47:07;99758.63;;;25.27;72.69
63819;BME280;49970;54.976;73.248;2023-07-31T04:49:34;99763.78;;;25.36;73.10
63819;BME280;49970;54.976;73.248;2023-07-31T04:52:02;99749.56;;;25.40;72.09
63819;BME280;49970;54.976;73.248;2023-07-31T04:54:28;99746.44;;;25.43;71.54
63819;BME280;49970;54.976;73.248;2023-07-31T04:56:54;99758.34;;;25.67;72.03
63819;BME280;49970;54.976;73.248;2023-07-31T04:59:20;99754.66;;;25.87;70.93
63819;BME280;49970;54.976;73.248;2023-07-31T05:01:47;99753.41;;;25.89;70.82
63819;BME280;49970;54.976;73.248;2023-07-31T05:04:13;99748.63;;;25.85;69.72
63819;BME280;49970;54.976;73.248;2023-07-31T05:06:40;99755.03;;;25.90;69.52
63819;BME280;49970;54.976;73.248;2023-07-31T05:09:07;99756.78;;;25.85;69.72
63819;BME280;49970;54.976;73.248;2023-07-31T05:11:33;99752.22;;;25.78;69.71
63819;BME280;49970;54.976;73.248;2023-07-31T05:13:59;99746.91;;;25.90;70.04
63819;BME280;49970;54.976;73.248;2023-07-31T05:16:32;99751.06;;;25.93;69.47
63819;BME280;49970;54.976;73.248;2023-07-31T05:18:58;99759.88;;;25.88;69.01
63819;BME280;49970;54.976;73.248;2023-07-31T05:21:24;99746.97;;;25.83;69.42
63819;BME280;49970;54.976;73.248;2023-07-31T05:23:50;99745.16;;;25.96;69.42
63819;BME280;49970;54.976;73.248;2023-07-31T05:26:17;99748.72;;;26.21;68.81
63819;BME280;49970;54.976;73.248;2023-07-31T05:28:43;99750.06;;;26.30;68.95
63819;BME280;49970;54.976;73.248;2023-07-31T05:31:09;99758.22;;;26.30;67.91
63819;BME280;49970;54.976;73.248;2023-07-31T05:33:36;99752.63;;;26.25;67.74
63819;BME280;49970;54.976;73.248;2023-07-31T05:36:02;99745.69;;;26.29;67.63
63819;BME280;49970;54.976;73.248;2023-07-31T05:38:28;99756.63;;;26.41;67.11
63819;BME280;49970;54.976;73.248;2023-07-31T05:40:55;99750.09;;;26.49;68.12
63819;BME280;49970;54.976;73.248;2023-07-31T05:43:21;99753.06;;;26.41;67.12
63819;BME280;49970;54.976;73.248;2023-07-31T05:45:48;99753.66;;;26.24;67.42
63819;BME280;49970;54.976;73.248;2023-07-31T05:48:14;99749.34;;;26.17;67.46
63819;BME280;49970;54.976;73.248;2023-07-31T05:50:40;99752.31;;;26.15;67.26
63819;BME280;49970;54.976;73.248;2023-07-31T05:53:06;99753.28;;;26.21;67.38
63819;BME280;49970;54.976;73.248;2023-07-31T05:55:34;99754.28;;;26.26;67.01
63819;BME280;49970;54.976;73.248;2023-07-31T05:58:00;99744.53;;;26.19;66.47
63819;BME280;49970;54.976;73.248;2023-07-31T06:00:26;99745.53;;;26.24;67.41
63819;BME280;49970;54.976;73.248;2023-07-31T06:02:53;99741.91;;;26.30;66.13
63819;BME280;49970;54.976;73.248;2023-07-31T06:05:19;99736.09;;;26.27;66.14
63819;BME280;49970;54.976;73.248;2023-07-31T06:07:46;99732.28;;;26.35;65.65
63819;BME280;49970;54.976;73.248;2023-07-31T06:10:12;99740.75;;;26.63;65.53
63819;BME280;49970;54.976;73.248;2023-07-31T06:12:39;99740.25;;;26.85;64.57
63819;BME280;49970;54.976;73.248;2023-07-31T06:15:06;99725.66;;;26.97;64.44
63819;BME280;49970;54.976;73.248;2023-07-31T06:17:32;99738.31;;;27.22;63.31
63819;BME280;49970;54.976;73.248;2023-07-31T06:19:58;99737.38;;;27.28;63.86
63819;BME280;49970;54.976;73.248;2023-07-31T06:22:25;99725.31;;;27.36;63.28
63819;BME280;49970;54.976;73.248;2023-07-31T06:24:51;99725.91;;;27.38;61.84
63819;BME280;49970;54.976;73.248;2023-07-31T06:27:17;99728.03;;;27.36;63.57
63819;BME280;49970;54.976;73.248;2023-07-31T06:29:43;99727.69;;;27.32;63.67
63819;BME280;49970;54.976;73.248;2023-07-31T06:32:09;99720.47;;;27.26;63.24
63819;BME280;49970;54.976;73.248;2023-07-31T06:34:36;99715.34;;;27.18;62.41
63819;BME280;49970;54.976;73.248;2023-07-31T06:37:02;99721.78;;;27.05;61.49
63819;BME280;49970;54.976;73.248;2023-07-31T06:39:28;99714.31;;;27.00;62.34
63819;BME280;49970;54.976;73.248;2023-07-31T06:41:54;99711.94;;;26.92;60.97
63819;BME280;49970;54.976;73.248;2023-07-31T06:44:20;99712.06;;;26.97;60.29
63819;BME280;49970;54.976;73.248;2023-07-31T06:46:47;99702.16;;;27.03;60.26
63819;BME280;49970;54.976;73.248;2023-07-31T06:49:13;99706.97;;;27.19;60.47
63819;BME280;49970;54.976;73.248;2023-07-31T06:51:41;99710.28;;;27.21;59.84
63819;BME280;49970;54.976;73.248;2023-07-31T06:54:08;99703.41;;;27.19;60.27
63819;BME280;49970;54.976;73.248;2023-07-31T06:56:34;99711.06;;;27.10;61.33
63819;BME280;49970;54.976;73.248;2023-07-31T06:59:00;99706.31;;;27.05;63.01
63819;BME280;49970;54.976;73.248;2023-07-31T07:01:26;99708.03;;;27.00;65.53
63819;BME280;49970;54.976;73.248;2023-07-31T07:03:54;99709.06;;;26.87;68.97
63819;BME280;49970;54.976;73.248;2023-07-31T07:06:22;99714.47;;;26.75;72.01
63819;BME280;49970;54.976;73.248;2023-07-31T07:08:48;99714.34;;;26.52;72.80
63819;BME280;49970;54.976;73.248;2023-07-31T07:11:14;99718.44;;;26.36;71.06
63819;BME280;49970;54.976;73.248;2023-07-31T07:13:45;99712.41;;;26.16;72.12
63819;BME280;49970;54.976;73.248;2023-07-31T07:16:11;99718.94;;;25.90;69.93
63819;BME280;49970;54.976;73.248;2023-07-31T07:18:37;99717.72;;;25.61;71.52
63819;BME280;49970;54.976;73.248;2023-07-31T07:21:04;99710.56;;;25.41;69.18
63819;BME280;49970;54.976;73.248;2023-07-31T07:23:30;99712.28;;;25.36;70.78
63819;BME280;49970;54.976;73.248;2023-07-31T07:25:57;99722.97;;;25.30;70.22
63819;BME280;49970;54.976;73.248;2023-07-31T07:28:23;99715.25;;;25.27;71.55
63819;BME280;49970;54.976;73.248;2023-07-31T07:30:53;99715.09;;;25.22;74.64
63819;BME280;49970;54.976;73.248;2023-07-31T07:33:21;99715.94;;;25.16;71.40
63819;BME280;49970;54.976;73.248;2023-07-31T07:35:48;99717.00;;;25.15;69.86
63819;BME280;49970;54.976;73.248;2023-07-31T07:38:14;99704.94;;;25.11;70.03
63819;BME280;49970;54.976;73.248;2023-07-31T07:40:41;99708.69;;;25.17;70.86
63819;BME280;49970;54.976;73.248;2023-07-31T07:43:10;99707.19;;;25.21;71.20
63819;BME280;49970;54.976;73.248;2023-07-31T07:45:36;99687.56;;;25.25;71.33
63819;BME280;49970;54.976;73.248;2023-07-31T07:48:02;99699.28;;;25.44;74.10
63819;BME280;49970;54.976;73.248;2023-07-31T07:50:29;99695.19;;;25.60;75.66
63819;BME280;49970;54.976;73.248;2023-07-31T07:52:55;99679.06;;;25.65;71.68
63819;BME280;49970;54.976;73.248;2023-07-31T07:55:21;99692.63;;;25.90;69.17
63819;BME280;49970;54.976;73.248;2023-07-31T07:57:48;99690.59;;;26.04;70.91
63819;BME280;49970;54.976;73.248;2023-07-31T08:00:16;99691.16;;;26.13;70.36
63819;BME280;49970;54.976;73.248;2023-07-31T08:02:43;99683.06;;;26.24;69.14
63819;BME280;49970;54.976;73.248;2023-07-31T08:05:10;99676.13;;;26.28;68.56
63819;BME280;49970;54.976;73.248;2023-07-31T08:07:36;99670.25;;;26.31;67.74
63819;BME280;49970;54.976;73.248;2023-07-31T08:10:03;99676.44;;;26.39;69.29
63819;BME280;49970;54.976;73.248;2023-07-31T08:12:29;99683.25;;;26.48;70.77
63819;BME280;49970;54.976;73.248;2023-07-31T08:14:55;99680.38;;;26.43;69.70
63819;BME280;49970;54.976;73.248;2023-07-31T08:17:21;99660.16;;;26.20;68.37
63819;BME280;49970;54.976;73.248;2023-07-31T08:19:48;99681.88;;;26.20;69.66
63819;BME280;49970;54.976;73.248;2023-07-31T08:22:14;99677.91;;;26.04;67.90
63819;BME280;49970;54.976;73.248;2023-07-31T08:24:40;99683.53;;;26.03;68.49
63819;BME280;49970;54.976;73.248;2023-07-31T08:27:06;99687.06;;;26.03;67.59
63819;BME280;49970;54.976;73.248;2023-07-31T08:29:32;99673.97;;;26.00;68.46
63819;BME280;49970;54.976;73.248;2023-07-31T08:31:59;99681.59;;;26.10;67.17
63819;BME280;49970;54.976;73.248;2023-07-31T08:34:25;99678.63;;;26.12;65.86
63819;BME280;49970;54.976;73.248;2023-07-31T08:36:51;99676.59;;;26.07;67.95
63819;BME280;49970;54.976;73.248;2023-07-31T08:39:17;99664.31;;;26.04;69.25
63819;BME280;49970;54.976;73.248;2023-07-31T08:41:44;99673.59;;;26.15;67.92
63819;BME280;49970;54.976;73.248;2023-07-31T08:44:10;99661.84;;;26.21;68.61
63819;BME280;49970;54.976;73.248;2023-07-31T08:46:38;99664.38;;;26.35;66.77
63819;BME280;49970;54.976;73.248;2023-07-31T08:49:05;99668.16;;;26.33;66.16
63819;BME280;49970;54.976;73.248;2023-07-31T08:51:35;99655.47;;;26.27;67.77
63819;BME280;49970;54.976;73.248;2023-07-31T08:54:02;99660.91;;;26.27;67.78
63819;BME280;49970;54.976;73.248;2023-07-31T08:56:35;99664.31;;;26.23;67.76
63819;BME280;49970;54.976;73.248;2023-07-31T08:59:02;99651.41;;;26.18;67.60
63819;BME280;49970;54.976;73.248;2023-07-31T09:01:30;99654.50;;;26.22;66.36
63819;BME280;49970;54.976;73.248;2023-07-31T09:03:59;99646.75;;;26.25;65.60
63819;BME280;49970;54.976;73.248;2023-07-31T09:06:29;99657.38;;;26.27;63.06
63819;BME280;49970;54.976;73.248;2023-07-31T09:08:56;99657.22;;;26.22;64.06
63819;BME280;49970;54.976;73.248;2023-07-31T09:11:23;99652.25;;;26.19;64.62
63819;BME280;49970;54.976;73.248;2023-07-31T09:13:50;99648.84;;;26.23;63.64
63819;BME280;49970;54.976;73.248;2023-07-31T09:16:17;99656.69;;;26.31;62.06
63819;BME280;49970;54.976;73.248;2023-07-31T09:18:54;99652.06;;;26.32;61.53
63819;BME280;49970;54.976;73.248;2023-07-31T09:21:24;99653.63;;;26.46;61.43
63819;BME280;49970;54.976;73.248;2023-07-31T09:23:51;99655.53;;;26.57;60.03
63819;BME280;49970;54.976;73.248;2023-07-31T09:26:36;99654.16;;;26.67;59.40
63819;BME280;49970;54.976;73.248;2023-07-31T09:29:07;99656.41;;;26.70;57.58
63819;BME280;49970;54.976;73.248;2023-07-31T09:31:44;99656.78;;;26.73;56.83
63819;BME280;49970;54.976;73.248;2023-07-31T09:34:11;99647.69;;;26.68;55.95
63819;BME280;49970;54.976;73.248;2023-07-31T09:36:44;99639.53;;;26.68;57.42
63819;BME280;49970;54.976;73.248;2023-07-31T09:39:12;99638.34;;;26.64;56.72
63819;BME280;49970;54.976;73.248;2023-07-31T09:41:40;99634.63;;;26.58;58.36
63819;BME280;49970;54.976;73.248;2023-07-31T09:44:06;99637.22;;;26.53;59.07
63819;BME280;49970;54.976;73.248;2023-07-31T09:46:37;99624.72;;;26.52;57.48
63819;BME280;49970;54.976;73.248;2023-07-31T09:49:11;99635.00;;;26.62;57.32
63819;BME280;49970;54.976;73.248;2023-07-31T09:51:39;99631.38;;;26.68;56.26
63819;BME280;49970;54.976;73.248;2023-07-31T09:54:11;99621.56;;;26.67;56.73
63819;BME280;49970;54.976;73.248;2023-07-31T09:56:43;99630.69;;;26.72;55.70
63819;BME280;49970;54.976;73.248;2023-07-31T09:59:14;99623.50;;;26.78;57.84
63819;BME280;49970;54.976;73.248;2023-07-31T10:01:42;99622.47;;;26.91;55.98
63819;BME280;49970;54.976;73.248;2023-07-31T10:04:10;99631.34;;;26.98;57.28
63819;BME280;49970;54.976;73.248;2023-07-31T10:06:37;99629.81;;;27.02;57.31
63819;BME280;49970;54.976;73.248;2023-07-31T10:09:09;99636.91;;;27.03;56.24
63819;BME280;49970;54.976;73.248;2023-07-31T10:11:47;99618.69;;;26.92;57.21
63819;BME280;49970;54.976;73.248;2023-07-31T10:14:20;99633.81;;;26.99;55.98
63819;BME280;49970;54.976;73.248;2023-07-31T10:16:47;99632.25;;;26.92;57.07
63819;BME280;49970;54.976;73.248;2023-07-31T10:19:14;99640.28;;;26.87;56.48
63819;BME280;49970;54.976;73.248;2023-07-31T10:21:42;99641.00;;;26.82;57.65
63819;BME280;49970;54.976;73.248;2023-07-31T10:24:09;99636.84;;;26.79;56.68
63819;BME280;49970;54.976;73.248;2023-07-31T10:26:37;99640.16;;;26.81;57.65
63819;BME280;49970;54.976;73.248;2023-07-31T10:29:05;99623.75;;;26.76;57.54
63819;BME280;49970;54.976;73.248;2023-07-31T10:31:34;99642.09;;;26.93;57.98
63819;BME280;49970;54.976;73.248;2023-07-31T10:34:01;99641.97;;;26.99;57.35
63819;BME280;49970;54.976;73.248;2023-07-31T10:36:28;99638.34;;;27.05;57.52
63819;BME280;49970;54.976;73.248;2023-07-31T10:38:55;99629.22;;;27.00;56.41
63819;BME280;49970;54.976;73.248;2023-07-31T10:41:31;99639.19;;;27.06;57.00
63819;BME280;49970;54.976;73.248;2023-07-31T10:43:59;99638.50;;;27.11;56.79
63819;BME280;49970;54.976;73.248;2023-07-31T10:46:27;99628.19;;;27.01;56.76
63819;BME280;49970;54.976;73.248;2023-07-31T10:48:58;99645.84;;;27.10;56.72
63819;BME280;49970;54.976;73.248;2023-07-31T10:51:36;99639.19;;;27.06;57.40
63819;BME280;49970;54.976;73.248;2023-07-31T10:54:14;99636.66;;;27.04;57.74
63819;BME280;49970;54.976;73.248;2023-07-31T10:56:45;99635.38;;;27.07;58.65
63819;BME280;49970;54.976;73.248;2023-07-31T10:59:13;99630.34;;;27.11;57.83
63819;BME280;49970;54.976;73.248;2023-07-31T11:01:53;99634.50;;;27.13;58.15
63819;BME280;49970;54.976;73.248;2023-07-31T11:04:27;99630.81;;;27.19;57.55
63819;BME280;49970;54.976;73.248;2023-07-31T11:07:02;99635.81;;;27.22;58.28
63819;BME280;49970;54.976;73.248;2023-07-31T11:09:33;99633.91;;;27.23;57.48
63819;BME280;49970;54.976;73.248;2023-07-31T11:11:59;99632.03;;;27.23;58.28
63819;BME280;49970;54.976;73.248;2023-07-31T11:14:26;99641.94;;;27.29;57.34
63819;BME280;49970;54.976;73.248;2023-07-31T11:16:52;99641.47;;;27.33;57.22
63819;BME280;49970;54.976;73.248;2023-07-31T11:19:25;99641.84;;;27.36;56.96
63819;BME280;49970;54.976;73.248;2023-07-31T11:21:55;99643.28;;;27.39;58.10
63819;BME280;49970;54.976;73.248;2023-07-31T11:24:22;99623.75;;;27.30;57.62
63819;BME280;49970;54.976;73.248;2023-07-31T11:26:52;99637.59;;;27.40;57.17
63819;BME280;49970;54.976;73.248;2023-07-31T11:29:19;99642.78;;;27.42;56.64
63819;BME280;49970;54.976;73.248;2023-07-31T11:31:47;99640.56;;;27.39;57.02
63819;BME280;49970;54.976;73.248;2023-07-31T11:34:15;99634.75;;;27.35;56.95
63819;BME280;49970;54.976;73.248;2023-07-31T11:36:53;99637.59;;;27.40;56.08
63819;BME280;49970;54.976;73.248;2023-07-31T11:39:19;99640.06;;;27.42;56.16
63819;BME280;49970;54.976;73.248;2023-07-31T11:41:45;99634.63;;;27.42;55.72
63819;BME280;49970;54.976;73.248;2023-07-31T11:44:11;99635.47;;;27.42;55.69
63819;BME280;49970;54.976;73.248;2023-07-31T11:46:38;99630.72;;;27.38;55.53
63819;BME280;49970;54.976;73.248;2023-07-31T11:49:05;99625.16;;;27.33;56.70
63819;BME280;49970;54.976;73.248;2023-07-31T11:51:31;99624.94;;;27.34;57.37
63819;BME280;49970;54.976;73.248;2023-07-31T11:54:00;99618.06;;;27.31;57.06
63819;BME280;49970;54.976;73.248;2023-07-31T11:56:28;99617.72;;;27.28;56.49
63819;BME280;49970;54.976;73.248;2023-07-31T11:58:58;99616.19;;;27.32;57.57
63819;BME280;49970;54.976;73.248;2023-07-31T12:01:26;99613.09;;;27.28;57.26
63819;BME280;49970;54.976;73.248;2023-07-31T12:03:56;99606.00;;;27.27;57.52
63819;BME280;49970;54.976;73.248;2023-07-31T12:06:37;99597.84;;;27.27;56.82
63819;BME280;49970;54.976;73.248;2023-07-31T12:09:04;99594.31;;;27.27;56.91
63819;BME280;49970;54.976;73.248;2023-07-31T12:11:31;99600.56;;;27.27;56.29
63819;BME280;49970;54.976;73.248;2023-07-31T12:13:57;99575.88;;;27.17;56.00
63819;BME280;49970;54.976;73.248;2023-07-31T12:16:26;99603.03;;;27.29;56.47
63819;BME280;49970;54.976;73.248;2023-07-31T12:18:54;99603.88;;;27.29;55.70
63819;BME280;49970;54.976;73.248;2023-07-31T12:21:21;99606.59;;;27.29;56.72
63819;BME280;49970;54.976;73.248;2023-07-31T12:23:47;99619.97;;;27.31;56.56
63819;BME280;49970;54.976;73.248;2023-07-31T12:26:15;99610.03;;;27.25;56.49
63819;BME280;49970;54.976;73.248;2023-07-31T12:28:45;99614.28;;;27.21;56.58
63819;BME280;49970;54.976;73.248;2023-07-31T12:33:47;99614.97;;;27.16;56.12
63819;BME280;49970;54.976;73.248;2023-07-31T12:36:17;99620.41;;;27.16;56.59
63819;BME280;49970;54.976;73.248;2023-07-31T12:38:44;99625.03;;;27.16;56.37
63819;BME280;49970;54.976;73.248;2023-07-31T12:41:12;99632.59;;;27.14;56.74
63819;BME280;49970;54.976;73.248;2023-07-31T12:43:40;99625.13;;;27.09;56.21
63819;BME280;49970;54.976;73.248;2023-07-31T12:46:07;99624.75;;;27.05;56.62
63819;BME280;49970;54.976;73.248;2023-07-31T12:48:34;99622.03;;;27.05;56.84
63819;BME280;49970;54.976;73.248;2023-07-31T12:51:01;99620.16;;;27.06;56.68
63819;BME280;49970;54.976;73.248;2023-07-31T12:53:27;99622.50;;;27.02;56.94
63819;BME280;49970;54.976;73.248;2023-07-31T12:55:56;99619.41;;;26.99;57.11
63819;BME280;49970;54.976;73.248;2023-07-31T12:58:22;99616.56;;;26.94;57.45
63819;BME280;49970;54.976;73.248;2023-07-31T13:00:49;99615.47;;;26.83;57.07
63819;BME280;49970;54.976;73.248;2023-07-31T13:03:15;99618.44;;;26.81;57.53